Time;durP1;ratioP1;P1;durP2;ratioP2;P2;SDS_P1;SDS_P2;PMS_P1;PMS_P2;Temp;Humidity;BMP_temperature;BMP_pressure;BME280_temperature;BME280_humidity;BME280_pressure;Samples;Min_cycle;Max_cycle;Signal;HPM_P1;HPM_P2
2023/01/11 00:01:20;;;;;;;11.27;3.60;;;;;;;8.91;100.00;100629.66;5064001;28;20362;-81
2023/01/11 00:03:58;;;;;;;8.20;3.60;;;;;;;8.95;100.00;100639.00;5032314;28;20063;-83
2023/01/11 00:06:26;;;;;;;4.53;3.03;;;;;;;8.97;100.00;100637.09;5058249;28;20065;-82
2023/01/11 00:09:03;;;;;;;9.50;3.20;;;;;;;9.00;100.00;100632.47;5050837;28;20033;-85
2023/01/11 00:11:31;;;;;;;4.00;2.63;;;;;;;9.02;100.00;100627.94;5047409;28;20123;-82
2023/01/11 00:13:57;;;;;;;5.43;3.10;;;;;;;9.05;100.00;100626.88;5070927;28;20037;-83
2023/01/11 00:16:31;;;;;;;6.35;2.83;;;;;;;9.09;100.00;100617.84;5044955;28;20582;-83
2023/01/11 00:18:57;;;;;;;5.10;2.80;;;;;;;9.11;100.00;100618.56;5059249;28;20044;-83
2023/01/11 00:21:22;;;;;;;6.72;2.40;;;;;;;9.11;100.00;100613.31;5046270;28;20050;-83
2023/01/11 00:23:51;;;;;;;3.83;2.30;;;;;;;9.18;100.00;100619.81;5032005;28;20131;-82
2023/01/11 00:26:19;;;;;;;5.72;2.33;;;;;;;9.20;100.00;100617.91;5068480;28;20037;-83
2023/01/11 00:28:48;;;;;;;5.57;2.30;;;;;;;9.23;100.00;100612.47;5066509;28;20091;-84
2023/01/11 00:31:16;;;;;;;4.18;2.10;;;;;;;9.27;100.00;100613.91;5069332;28;20471;-84
2023/01/11 00:33:42;;;;;;;4.70;2.20;;;;;;;9.28;100.00;100610.34;5066150;28;20032;-85
2023/01/11 00:36:08;;;;;;;4.32;2.15;;;;;;;9.33;100.00;100613.47;5070621;28;20210;-84
2023/01/11 00:38:43;;;;;;;5.75;2.30;;;;;;;9.31;100.00;100602.25;5057422;28;20040;-84
2023/01/11 00:49:25;;;;;;;3.25;1.92;;;;;;;9.36;100.00;100602.75;5070988;28;20063;-83
2023/01/11 00:51:50;;;;;;;3.78;2.28;;;;;;;9.36;100.00;100600.13;5042859;28;20393;-83
2023/01/11 00:54:16;;;;;;;3.50;2.15;;;;;;;9.35;100.00;100606.31;5055764;28;20036;-82
2023/01/11 00:56:41;;;;;;;4.35;2.47;;;;;;;9.33;100.00;100597.72;5052658;28;20071;-82
2023/01/11 00:59:07;;;;;;;4.05;2.60;;;;;;;9.34;100.00;100595.94;5061868;28;20029;-83
2023/01/11 01:01:33;;;;;;;4.20;2.22;;;;;;;9.32;100.00;100598.66;5047959;28;20036;-83
2023/01/11 01:04:04;;;;;;;6.60;2.40;;;;;;;9.34;100.00;100593.31;5069483;28;20082;-82
2023/01/11 01:06:30;;;;;;;8.43;2.50;;;;;;;9.33;100.00;100595.09;5053172;28;20462;-82
2023/01/11 01:08:55;;;;;;;4.50;2.60;;;;;;;9.32;100.00;100590.78;5062523;28;20115;-83
2023/01/11 01:11:22;;;;;;;4.57;2.58;;;;;;;9.32;100.00;100590.78;5057151;28;20103;-83
2023/01/11 01:16:35;;;;;;;5.80;2.72;;;;;;;9.33;100.00;100596.88;5038784;28;21716;-82
2023/01/11 01:19:19;;;;;;;;;;;;;;;;;;;;;
2023/01/11 01:21:45;;;;;;;4.82;3.13;;;;;;;9.34;100.00;100593.31;5046063;28;20039;-82
2023/01/11 01:24:10;;;;;;;6.40;3.10;;;;;;;9.33;100.00;100595.09;5050718;28;20029;-83
2023/01/11 01:26:36;;;;;;;4.90;2.85;;;;;;;9.35;100.00;100595.81;5056101;28;20083;-83
2023/01/11 01:29:02;;;;;;;5.22;3.20;;;;;;;9.37;100.00;100599.16;5048695;28;20053;-83
2023/01/11 01:31:28;;;;;;;4.38;2.92;;;;;;;9.37;100.00;100593.91;5048688;28;20157;-84
2023/01/11 01:33:56;;;;;;;4.68;3.08;;;;;;;9.38;100.00;100597.38;5066234;28;20477;-83
2023/01/11 01:36:22;;;;;;;3.75;2.72;;;;;;;9.40;100.00;100590.22;5048277;28;20062;-82
2023/01/11 01:38:47;;;;;;;4.65;2.92;;;;;;;9.42;100.00;100591.78;5062506;28;20045;-82
2023/01/11 01:41:13;;;;;;;5.10;2.97;;;;;;;9.43;100.00;100582.13;5060874;28;20754;-83
2023/01/11 01:43:59;;;;;;;4.57;2.47;;;;;;;9.46;100.00;100596.81;5044884;28;20443;-83
2023/01/11 01:46:30;;;;;;;3.03;2.47;;;;;;;9.50;100.00;100598.25;5029656;28;20033;-84
2023/01/11 01:49:04;;;;;;;4.78;2.92;;;;;;;9.50;100.00;100588.59;5022713;28;20048;-84
2023/01/11 01:51:37;;;;;;;4.93;2.63;;;;;;;9.54;100.00;100586.56;5032848;28;20044;-84
2023/01/11 01:54:10;;;;;;;4.93;2.70;;;;;;;9.55;100.00;100591.72;5059454;28;20040;-83
2023/01/11 01:56:43;;;;;;;5.78;2.40;;;;;;;9.57;100.00;100586.34;5049265;28;20043;-83
2023/01/11 01:59:13;;;;;;;5.60;2.97;;;;;;;9.58;100.00;100585.38;5029593;28;20122;-82
2023/01/11 02:01:48;;;;;;;6.65;2.70;;;;;;;9.63;100.00;100580.66;5056125;28;20044;-83
2023/01/11 02:04:46;;;;;;;5.88;2.58;;;;;;;9.65;100.00;100576.97;5064601;28;20469;-83
2023/01/11 02:07:16;;;;;;;6.88;2.58;;;;;;;9.64;100.00;100584.97;5027799;28;20037;-83
2023/01/11 02:09:55;;;;;;;6.10;2.72;;;;;;;9.69;100.00;100588.09;5067490;28;20098;-84
2023/01/11 02:12:30;;;;;;;3.58;2.30;;;;;;;9.71;100.00;100581.75;5064162;28;20062;-82
2023/01/11 02:14:59;;;;;;;4.30;2.35;;;;;;;9.74;100.00;100588.56;5059922;28;20489;-83
2023/01/11 02:17:25;;;;;;;4.82;2.20;;;;;;;9.76;100.00;100573.53;5055612;28;20041;-83
2023/01/11 02:20:09;;;;;;;5.70;2.30;;;;;;;9.78;100.00;100579.50;5065477;28;20439;-81
2023/01/11 02:23:01;;;;;;;4.80;2.28;;;;;;;9.78;100.00;100582.13;5064377;28;20051;-81
2023/01/11 02:26:05;;;;;;;3.28;2.15;;;;;;;9.81;100.00;100587.16;5045742;28;20054;-82
2023/01/11 02:28:52;;;;;;;2.67;1.98;;;;;;;9.83;100.00;100576.53;5019516;28;20068;-81
2023/01/11 02:31:51;;;;;;;4.30;2.10;;;;;;;9.84;100.00;100581.66;5057992;28;20397;-83
2023/01/11 02:34:36;;;;;;;6.20;2.10;;;;;;;9.86;100.00;100573.66;5050300;28;20398;-83
2023/01/11 02:37:36;;;;;;;3.58;1.85;;;;;;;9.88;100.00;100580.47;5055636;28;20036;-84
2023/01/11 02:40:12;;;;;;;3.47;1.95;;;;;;;9.89;100.00;100568.19;5062589;28;20542;-84
2023/01/11 02:46:14;;;;;;;3.78;2.00;;;;;;;9.93;100.00;100559.94;5070426;28;20051;-83
2023/01/11 02:49:05;;;;;;;4.93;2.00;;;;;;;9.95;100.00;100559.84;5033850;28;20053;-83
2023/01/11 02:51:49;;;;;;;3.15;2.00;;;;;;;9.98;100.00;100557.81;5038469;28;20033;-82
2023/01/11 02:54:25;;;;;;;2.97;2.10;;;;;;;10.01;100.00;100562.84;5047959;28;20032;-83
2023/01/11 02:56:56;;;;;;;2.65;1.88;;;;;;;10.02;100.00;100561.06;5030079;28;20037;-83
2023/01/11 02:59:28;;;;;;;2.78;1.83;;;;;;;10.05;100.00;100568.72;5061958;28;20044;-83
2023/01/11 03:01:54;;;;;;;4.25;1.85;;;;;;;10.05;100.00;100559.03;5071690;28;20112;-83
2023/01/11 03:04:31;;;;;;;3.00;2.03;;;;;;;10.10;100.00;100563.09;5059651;28;20172;-82
2023/01/11 03:07:27;;;;;;;3.75;1.90;;;;;;;10.13;100.00;100562.88;5063964;28;20037;-83
2023/01/11 03:10:10;;;;;;;3.38;1.77;;;;;;;10.13;100.00;100557.59;5054998;28;20427;-83
2023/01/11 03:12:53;;;;;;;3.25;1.80;;;;;;;10.11;100.00;100552.47;5069716;28;20043;-83
2023/01/11 03:15:19;;;;;;;;;;;;;;;10.18;100.00;100550.19;5053665;28;20068;-83
2023/01/11 03:17:59;;;;;;;1.77;1.38;;;;;;;10.16;100.00;100558.22;5069147;28;19947;-82
2023/01/11 03:20:30;;;;;;;2.35;1.50;;;;;;;10.16;100.00;100565.25;5063741;28;20429;-83
2023/01/11 03:23:02;;;;;;;2.42;1.58;;;;;;;10.16;100.00;100560.84;5050520;28;20121;-82
2023/01/11 03:25:51;;;;;;;3.70;1.33;;;;;;;10.17;100.00;100559.03;5045852;28;20501;-83
2023/01/11 03:28:31;;;;;;;3.45;1.70;;;;;;;10.18;100.00;100558.09;5045341;28;20064;-83
2023/01/11 03:31:23;;;;;;;3.83;1.40;;;;;;;10.19;100.00;100560.59;5052636;28;20036;-84
2023/01/11 03:34:13;;;;;;;1.87;1.40;;;;;;;10.22;100.00;100564.81;5064508;28;20041;-84
2023/01/11 03:36:48;;;;;;;3.97;1.50;;;;;;;10.19;100.00;100559.75;5053333;28;20822;-83
2023/01/11 03:39:34;;;;;;;1.88;1.27;;;;;;;10.20;100.00;100561.44;5054523;28;20060;-83
2023/01/11 03:42:04;;;;;;;2.38;1.52;;;;;;;10.20;100.00;100561.44;5025286;28;20041;-84
2023/01/11 03:44:34;;;;;;;2.40;1.27;;;;;;;10.20;100.00;100558.81;5042863;28;20104;-83
2023/01/11 03:47:10;;;;;;;2.95;1.23;;;;;;;10.22;100.00;100559.56;5070104;28;20047;-84
2023/01/11 03:49:45;;;;;;;3.28;1.45;;;;;;;10.22;100.00;100559.56;5051541;28;20109;-83
2023/01/11 03:52:14;;;;;;;2.33;1.10;;;;;;;10.22;100.00;100549.03;5067408;28;20120;-83
2023/01/11 03:54:42;;;;;;;1.55;1.00;;;;;;;10.22;100.00;100552.50;5071573;28;20031;-82
2023/01/11 03:57:35;;;;;;;2.03;1.10;;;;;;;10.23;100.00;100550.72;5058217;28;20040;-83
2023/01/11 04:00:01;;;;;;;1.60;1.27;;;;;;;10.24;100.00;100557.66;5051935;28;20029;-83
2023/01/11 04:02:34;;;;;;;1.40;1.30;;;;;;;10.26;100.00;100561.00;5049002;28;20313;-82
2023/01/11 04:04:59;;;;;;;1.95;1.48;;;;;;;10.27;100.00;100573.19;5050391;28;20068;-83
2023/01/11 04:07:30;;;;;;;2.10;1.90;;;;;;;10.27;100.00;100557.41;5050820;28;21600;-82
2023/01/11 04:09:58;;;;;;;1.83;1.70;;;;;;;10.29;100.00;100566.00;5071114;28;20435;-82
2023/01/11 04:12:25;;;;;;;2.30;2.10;;;;;;;10.33;100.00;100567.44;5052687;28;20021;-82
2023/01/11 04:14:51;;;;;;;2.47;2.25;;;;;;;10.32;100.00;100563.97;5054048;28;20473;-82
2023/01/11 04:17:16;;;;;;;3.08;2.78;;;;;;;10.33;100.00;100576.16;5070154;28;20115;-82
2023/01/11 04:19:42;;;;;;;3.63;2.72;;;;;;;10.36;100.00;100578.56;5053222;28;20047;-82
2023/01/11 04:22:10;;;;;;;3.60;2.53;;;;;;;10.37;100.00;100589.91;5052777;28;20127;-82
2023/01/11 04:24:38;;;;;;;3.33;2.88;;;;;;;10.38;100.00;100575.81;5066804;28;20040;-82
2023/01/11 04:27:04;;;;;;;2.85;2.58;;;;;;;10.40;100.00;100570.44;5048115;28;20056;-82
2023/01/11 04:29:29;;;;;;;2.80;2.38;;;;;;;10.40;100.00;100579.16;5067278;28;20075;-82
2023/01/11 04:31:55;;;;;;;2.65;2.40;;;;;;;10.44;100.00;100582.41;5050900;28;20057;-83
2023/01/11 04:34:21;;;;;;;2.72;2.00;;;;;;;10.44;100.00;100582.41;5058012;28;20529;-81
2023/01/11 04:36:49;;;;;;;4.10;2.40;;;;;;;10.46;100.00;100588.41;5044340;28;20047;-83
2023/01/11 04:39:14;;;;;;;2.78;1.85;;;;;;;10.46;100.00;100591.88;5035254;28;20435;-83
2023/01/11 04:44:24;;;;;;;2.78;1.70;;;;;;;10.46;100.00;100602.38;5059259;28;20094;-82
2023/01/11 04:46:50;;;;;;;2.67;1.92;;;;;;;10.46;100.00;100610.28;5064599;28;20424;-82
2023/01/11 04:49:15;;;;;;;2.95;1.70;;;;;;;10.49;100.00;100617.09;5069973;28;20040;-81
2023/01/11 04:51:41;;;;;;;3.05;1.63;;;;;;;10.47;100.00;100601.44;5061714;28;20504;-82
2023/01/11 04:54:06;;;;;;;1.92;1.10;;;;;;;10.48;100.00;100607.53;5033056;28;20036;-81
2023/01/11 04:56:35;;;;;;;2.60;1.48;;;;;;;10.48;100.00;100597.00;5044617;28;20485;-81
2023/01/11 04:59:01;;;;;;;2.45;1.45;;;;;;;10.49;100.00;100609.19;5049964;28;20485;-81
2023/01/11 05:01:26;;;;;;;2.65;1.50;;;;;;;10.48;100.00;100602.25;5048618;28;20033;-81
2023/01/11 05:03:53;;;;;;;3.28;1.40;;;;;;;10.47;100.00;100598.78;5048480;28;20041;-81
2023/01/11 05:06:21;;;;;;;2.08;1.10;;;;;;;10.46;100.00;100604.19;5042136;28;20081;-84
2023/01/11 05:08:47;;;;;;;1.75;1.20;;;;;;;10.46;100.00;100605.00;5048876;28;20041;-81
2023/01/11 05:11:14;;;;;;;3.30;1.45;;;;;;;10.43;100.00;100597.38;5058427;28;20115;-82
2023/01/11 05:13:42;;;;;;;2.38;1.23;;;;;;;10.45;100.00;100615.66;5045903;28;20047;-82
2023/01/11 05:16:24;;;;;;;1.65;1.50;;;;;;;10.46;100.00;100610.28;5048387;28;20348;-82
2023/01/11 05:19:00;;;;;;;1.70;1.60;;;;;;;10.47;100.00;100611.94;5049947;28;20533;-82
2023/01/11 05:21:32;;;;;;;2.25;2.05;;;;;;;10.48;100.00;100626.78;5048873;28;20043;-82
2023/01/11 05:24:12;;;;;;;2.67;2.10;;;;;;;10.47;100.00;100627.72;5067382;28;20122;-82
2023/01/11 05:26:40;;;;;;;2.63;2.42;;;;;;;10.48;100.00;100623.31;5068750;28;20373;-82
2023/01/11 05:29:38;;;;;;;4.45;2.95;;;;;;;10.50;100.00;100632.75;5057502;28;20029;-82
2023/01/11 05:32:04;;;;;;;5.53;3.75;;;;;;;10.43;100.00;100626.28;5049147;28;20033;-82
2023/01/11 05:34:38;;;;;;;4.82;4.00;;;;;;;10.45;100.00;100631.44;5064516;28;20554;-82
2023/01/11 05:37:03;;;;;;;6.03;4.07;;;;;;;10.43;100.00;100631.56;5049893;28;20050;-82
2023/01/11 05:39:29;;;;;;;5.20;4.55;;;;;;;10.41;100.00;100633.47;5053252;28;20040;-82
2023/01/11 05:41:54;;;;;;;6.32;5.63;;;;;;;10.39;100.00;100637.97;5067488;28;20064;-82
2023/01/11 05:47:07;;;;;;;9.40;5.70;;;;;;;10.38;100.00;100631.03;5057385;28;20098;-82
2023/01/11 05:49:32;;;;;;;6.78;5.00;;;;;;;10.36;100.00;100632.94;5057352;28;20124;-82
2023/01/11 05:52:03;;;;;;;6.82;5.30;;;;;;;10.37;100.00;100634.63;5039164;28;20201;-82
2023/01/11 05:54:41;;;;;;;7.53;5.15;;;;;;;10.36;100.00;100635.59;5057059;28;20553;-83
2023/01/11 05:57:09;;;;;;;7.30;5.85;;;;;;;10.35;100.00;100654.94;5052631;28;20115;-83
2023/01/11 05:59:34;;;;;;;7.03;5.07;;;;;;;10.32;100.00;100642.03;5068129;28;20396;-82
2023/01/11 06:02:00;;;;;;;7.75;3.70;;;;;;;10.23;100.00;100655.88;5067237;28;20044;-82
2023/01/11 06:04:26;;;;;;;10.43;3.63;;;;;;;10.17;100.00;100666.84;5053166;28;20075;-83
2023/01/11 06:07:05;;;;;;;12.43;3.75;;;;;;;10.14;100.00;100660.03;5063726;28;20548;-83
2023/01/11 06:09:31;;;;;;;8.63;3.00;;;;;;;10.07;100.00;100660.59;5058446;28;20041;-82
2023/01/11 06:11:56;;;;;;;13.80;3.88;;;;;;;10.05;100.00;100669.44;5072794;28;20045;-82
2023/01/11 06:14:27;;;;;;;12.55;3.47;;;;;;;9.99;100.00;100672.50;5048328;28;20419;-82
2023/01/11 06:16:53;;;;;;;17.27;4.13;;;;;;;9.94;100.00;100673.78;5071258;28;20830;-82
2023/01/11 06:19:30;;;;;;;16.33;3.75;;;;;;;9.91;100.00;100682.75;5048734;28;20528;-83
2023/01/11 06:21:55;;;;;;;16.17;3.63;;;;;;;9.85;100.00;100672.69;5032736;28;20037;-83
2023/01/11 06:24:21;;;;;;;15.73;3.95;;;;;;;9.81;100.00;100692.25;5037901;28;20028;-83
2023/01/11 06:26:46;;;;;;;16.25;3.67;;;;;;;9.80;100.00;100689.75;5068902;28;20428;-83
2023/01/11 06:29:33;;;;;;;15.25;3.33;;;;;;;9.78;100.00;100687.22;5052374;28;20047;-83
2023/01/11 06:31:58;;;;;;;16.13;3.83;;;;;;;9.71;100.00;100686.00;5067694;28;20056;-83
2023/01/11 06:34:24;;;;;;;17.88;4.03;;;;;;;9.69;100.00;100690.53;5070483;28;20119;-83
2023/01/11 06:36:49;;;;;;;16.90;3.67;;;;;;;9.63;100.00;100693.63;5066164;28;20029;-83
2023/01/11 06:39:15;;;;;;;18.80;3.95;;;;;;;9.63;100.00;100722.50;5035632;28;20543;-83
2023/01/11 06:41:43;;;;;;;19.80;4.72;;;;;;;9.60;100.00;100715.66;5053181;28;20052;-83
2023/01/11 06:44:09;;;;;;;18.73;3.85;;;;;;;9.59;100.00;100715.78;5064082;28;20024;-84
2023/01/11 06:46:37;;;;;;;23.88;5.18;;;;;;;9.57;100.00;100717.66;5032443;28;20053;-84
2023/01/11 06:49:06;;;;;;;17.30;4.50;;;;;;;9.53;100.00;100713.59;5072810;28;20078;-85
2023/01/11 06:51:32;;;;;;;23.70;4.63;;;;;;;9.53;100.00;100750.34;5043117;28;20128;-83
2023/01/11 06:56:43;;;;;;;19.80;4.38;;;;;;;9.49;100.00;100759.41;5050824;28;20040;-84
2023/01/11 06:59:08;;;;;;;22.13;4.70;;;;;;;9.48;100.00;100752.47;5051732;28;20037;-83
2023/01/11 07:01:34;;;;;;;30.45;6.07;;;;;;;9.47;100.00;100756.06;5048518;28;20037;-84
2023/01/11 07:04:34;;;;;;;22.67;4.85;;;;;;;9.48;100.00;100752.47;5043867;28;20499;-84
2023/01/11 07:07:00;;;;;;;21.15;4.85;;;;;;;9.40;100.00;100743.34;4972757;28;20434;-84
2023/01/11 07:10:07;;;;;;;27.95;5.72;;;;;;;9.41;100.00;100744.19;4976443;28;20045;-84
2023/01/11 07:12:57;;;;;;;23.55;4.80;;;;;;;9.41;100.00;100760.78;4969604;28;20722;-84
2023/01/11 07:16:03;;;;;;;28.98;6.03;;;;;;;9.38;100.00;100763.63;4968990;28;20083;-83
2023/01/11 07:18:36;;;;;;;29.52;5.15;;;;;;;9.28;100.00;100778.34;5023382;28;20045;-84
2023/01/11 07:21:59;;;;;;;25.27;5.05;;;;;;;9.33;100.00;100786.75;5041866;28;20029;-85
2023/01/11 07:24:34;;;;;;;;;;;;;;;;;;;;;
2023/01/11 07:27:34;;;;;;;25.63;4.97;;;;;;;9.26;100.00;100790.75;5023335;28;20068;-84
2023/01/11 07:30:08;;;;;;;28.08;5.43;;;;;;;9.17;100.00;100799.25;5018085;28;20057;-85
2023/01/11 07:32:51;;;;;;;28.75;5.55;;;;;;;9.19;100.00;100794.72;5017526;28;20067;-84
2023/01/11 07:35:46;;;;;;;29.65;5.60;;;;;;;9.14;100.00;100796.84;5023816;28;20613;-84
2023/01/11 07:38:40;;;;;;;30.88;5.60;;;;;;;9.10;100.00;100803.25;5012128;28;20034;-85
2023/01/11 07:44:16;;;;;;;31.70;5.57;;;;;;;8.99;100.00;100817.09;5027438;28;20143;-84
2023/01/11 07:46:57;;;;;;;30.92;5.40;;;;;;;8.98;100.00;100822.44;5024339;28;20071;-85
2023/01/11 07:49:32;;;;;;;25.90;5.53;;;;;;;8.93;100.00;100827.19;5015902;28;20037;-84
2023/01/11 07:51:57;;;;;;;28.92;6.03;;;;;;;8.89;100.00;100846.69;4994095;28;20641;-84
2023/01/11 08:07:53;;;;;;;25.25;5.18;;;;;;;8.75;100.00;100858.94;5006311;28;20061;-85
2023/01/11 08:10:19;;;;;;;30.67;5.90;;;;;;;8.71;100.00;100860.06;5011112;28;20633;-85
2023/01/11 08:20:46;;;;;;;25.90;5.60;;;;;;;8.68;100.00;100881.25;4980019;28;20125;-84
2023/01/11 08:23:36;;;;;;;29.35;5.75;;;;;;;8.61;100.00;100898.34;4963175;28;20049;-84
2023/01/11 08:26:15;;;;;;;31.38;5.97;;;;;;;8.53;100.00;100900.63;5000081;28;20033;-84
2023/01/11 08:29:43;;;;;;;23.60;5.40;;;;;;;8.56;100.00;100921.41;4991160;28;20045;-84
2023/01/11 08:32:27;;;;;;;28.00;5.57;;;;;;;8.54;100.00;100933.78;4928763;29;20054;-84
2023/01/11 08:36:26;;;;;;;24.42;5.60;;;;;;;8.50;100.00;100932.28;4945051;29;20043;-85
2023/01/11 08:45:28;;;;;;;22.55;4.60;;;;;;;8.40;100.00;100937.25;4871615;29;20040;-84
2023/01/11 08:48:46;;;;;;;24.35;5.20;;;;;;;8.39;100.00;100948.69;4889289;29;20111;-85
2023/01/11 08:51:12;;;;;;;26.02;5.30;;;;;;;8.31;100.00;100945.69;4893328;29;20032;-84
2023/01/11 08:54:03;;;;;;;26.20;4.93;;;;;;;8.32;100.00;100949.97;4929387;29;20047;-85
2023/01/11 08:56:31;;;;;;;24.40;5.03;;;;;;;8.27;100.00;100957.28;4945372;29;20067;-84
2023/01/11 08:59:27;;;;;;;23.77;5.20;;;;;;;8.29;100.00;100955.41;4925694;28;20507;-85
2023/01/11 09:02:01;;;;;;;23.40;4.72;;;;;;;8.25;100.00;100963.56;4983039;28;20039;-84
2023/01/11 09:04:29;;;;;;;26.20;4.93;;;;;;;8.20;100.00;100970.88;5048583;28;20095;-84
2023/01/11 09:07:07;;;;;;;23.17;4.30;;;;;;;8.22;100.00;100985.56;5046930;28;20045;-84
2023/01/11 09:09:43;;;;;;;27.77;5.28;;;;;;;8.17;100.00;100978.00;5050253;28;20473;-84
2023/01/11 09:12:18;;;;;;;;;;;;;;;;;;;;;
2023/01/11 09:14:47;;;;;;;23.83;5.05;;;;;;;8.16;100.00;100991.19;5044734;28;20036;-84
2023/01/11 09:17:12;;;;;;;27.60;5.30;;;;;;;8.13;100.00;100989.63;5028966;28;20036;-82
2023/01/11 09:19:58;;;;;;;25.70;5.20;;;;;;;8.12;100.00;100995.78;5046984;28;20039;-84
2023/01/11 09:22:24;;;;;;;30.35;5.20;;;;;;;8.08;100.00;100982.97;5038453;28;20037;-83
2023/01/11 09:24:50;;;;;;;25.25;5.45;;;;;;;8.07;100.00;100995.22;5031204;28;20039;-84
2023/01/11 09:27:25;;;;;;;28.45;5.43;;;;;;;8.01;100.00;100998.22;5068112;28;20028;-84
2023/01/11 09:29:53;;;;;;;28.27;5.18;;;;;;;7.99;100.00;101000.06;5039283;28;20405;-84
2023/01/11 09:32:25;;;;;;;24.77;5.00;;;;;;;7.98;100.00;100998.38;5047540;28;20029;-84
2023/01/11 09:34:56;;;;;;;28.50;5.30;;;;;;;7.96;100.00;101004.66;5049886;28;20068;-84
2023/01/11 09:37:55;;;;;;;26.70;5.43;;;;;;;7.95;100.00;101009.06;5049367;28;20033;-84
2023/01/11 09:41:04;;;;;;;24.55;4.63;;;;;;;7.95;100.00;101009.06;5037124;28;20115;-84
2023/01/11 09:43:53;;;;;;;26.40;4.75;;;;;;;7.98;100.00;101014.09;5047092;28;20075;-84
2023/01/11 09:46:23;;;;;;;25.48;5.05;;;;;;;8.04;100.00;101024.25;5044698;28;20438;-84
2023/01/11 09:49:12;;;;;;;27.73;4.68;;;;;;;8.06;100.00;101019.75;5042091;28;20055;-83
2023/01/11 09:51:38;;;;;;;21.25;4.82;;;;;;;8.07;100.00;101016.19;5052033;28;20037;-84
2023/01/11 09:54:10;;;;;;;27.15;5.00;;;;;;;8.06;100.00;101027.63;5027876;28;20034;-84
2023/01/11 09:56:53;;;;;;;21.95;5.25;;;;;;;8.05;100.00;101028.56;5052105;28;20072;-84
2023/01/11 09:59:39;;;;;;;;;;;;;;;8.12;100.00;101042.13;5043079;28;20364;-84
2023/01/11 10:02:44;;;;;;;24.95;5.18;;;;;;;8.15;100.00;101042.78;4977154;28;19925;-84
2023/01/11 10:05:58;;;;;;;26.67;5.22;;;;;;;8.21;100.00;101038.09;4999241;28;20134;-83
2023/01/11 10:09:17;;;;;;;23.80;4.35;;;;;;;8.29;100.00;101041.06;4993298;28;20088;-86
2023/01/11 10:12:55;;;;;;;28.40;5.50;;;;;;;8.35;100.00;101038.94;4873159;29;20041;-84
2023/01/11 10:15:43;;;;;;;24.10;5.20;;;;;;;8.43;100.00;101030.63;4895414;29;20047;-83
2023/01/11 10:18:35;;;;;;;26.73;5.38;;;;;;;8.48;100.00;101033.81;4902486;29;20196;-83
2023/01/11 10:21:54;;;;;;;25.27;5.40;;;;;;;8.56;100.00;101041.19;4901017;29;20044;-84
2023/01/11 10:24:40;;;;;;;23.60;4.70;;;;;;;8.61;100.00;101039.13;4882257;29;20395;-83
2023/01/11 10:27:20;;;;;;;25.63;5.22;;;;;;;8.61;100.00;101037.34;4906996;29;20083;-84
2023/01/11 10:31:00;;;;;;;23.27;5.15;;;;;;;8.65;100.00;101030.13;4962845;28;20045;-84
2023/01/11 10:43:44;;;;;;;21.13;4.63;;;;;;;8.81;100.00;101045.75;4987923;28;20599;-84
2023/01/11 10:46:43;;;;;;;24.30;5.20;;;;;;;8.84;100.00;101053.44;5005336;28;20061;-84
2023/01/11 10:49:29;;;;;;;24.17;5.45;;;;;;;8.91;100.00;101044.22;5002585;28;20059;-83
2023/01/11 10:52:15;;;;;;;22.65;4.90;;;;;;;8.96;100.00;101043.00;5037463;28;20033;-83
2023/01/11 10:54:44;;;;;;;22.52;4.97;;;;;;;8.97;100.00;101041.19;5049568;28;20448;-83
2023/01/11 10:57:28;;;;;;;22.17;5.95;;;;;;;8.99;100.00;101047.19;5034908;28;20040;-83
2023/01/11 11:00:34;;;;;;;23.75;4.75;;;;;;;9.04;100.00;101037.25;5051925;28;20037;-84
2023/01/11 11:10:09;;;;;;;24.65;5.55;;;;;;;9.11;100.00;101044.63;5056335;28;20291;-85
2023/01/11 11:13:36;;;;;;;;;;;;;;;;;;;;;
2023/01/11 11:17:00;;;;;;;;;;;;;;;;;;;;;
2023/01/11 11:23:41;;;;;;;22.38;5.15;;;;;;;9.25;100.00;101051.63;4979235;28;20502;-84
2023/01/11 11:51:05;;;;;;;;;;;;;;;;;;;;;
2023/01/11 14:25:10;;;;;;;;;;;;;;;;;;;;;
2023/01/11 15:02:40;;;;;;;;;;;;;;;;;;;;;
2023/01/11 15:37:33;;;;;;;20.20;4.75;;;;;;;8.94;88.64;101083.38;4705531;30;20585;-85
2023/01/11 16:24:43;;;;;;;;;;;;;;;;;;;;;
2023/01/11 17:20:52;;;;;;;17.80;3.90;;;;;;;8.12;92.71;101166.13;4928828;29;20122;-84
2023/01/11 17:24:43;;;;;;;17.92;3.42;;;;;;;8.12;92.43;101157.44;4898813;29;20123;-83
2023/01/11 17:33:47;;;;;;;21.00;4.77;;;;;;;8.04;94.51;101134.31;4842734;29;20036;-83
2023/01/11 17:36:58;;;;;;;19.30;4.30;;;;;;;8.03;94.78;101137.84;4823832;29;20041;-81
2023/01/11 17:39:34;;;;;;;22.52;4.78;;;;;;;7.95;95.32;101142.66;4816797;29;20046;-81
2023/01/11 17:49:25;;;;;;;26.20;5.25;;;;;;;7.76;96.08;101121.13;4866300;29;20380;-81
2023/01/11 18:09:01;;;;;;;18.50;3.90;;;;;;;7.75;95.15;101117.66;4888722;29;20111;-84
2023/01/11 18:12:10;;;;;;;20.90;4.47;;;;;;;7.77;94.92;101125.41;4952187;29;20027;-84
2023/01/11 18:14:56;;;;;;;21.73;4.35;;;;;;;7.77;94.50;101117.56;4949155;28;20065;-85
2023/01/11 18:18:11;;;;;;;23.42;4.43;;;;;;;7.81;94.33;101111.22;4945564;29;20448;-84
2023/01/11 18:21:17;;;;;;;20.35;4.50;;;;;;;7.82;94.50;101112.91;4942434;29;20086;-85
2023/01/11 18:24:25;;;;;;;;;;;;;;;;;;;;;
2023/01/11 18:30:33;;;;;;;20.35;4.55;;;;;;;7.90;93.74;101108.03;5036218;28;20048;-84
2023/01/11 18:36:27;;;;;;;18.88;4.13;;;;;;;7.93;93.62;101104.41;5039661;28;20102;-84
2023/01/11 18:42:44;;;;;;;20.80;4.68;;;;;;;8.00;92.85;101087.38;5030755;28;20036;-86
2023/01/11 18:45:42;;;;;;;21.60;4.07;;;;;;;8.06;92.48;101095.75;5032474;28;20048;-84
2023/01/11 18:48:41;;;;;;;16.20;3.75;;;;;;;8.09;91.57;101094.72;5050125;28;20052;-84
2023/01/11 18:51:05;;;;;;;15.48;3.90;;;;;;;8.13;91.71;101089.19;5050828;28;20029;-84
2023/01/11 18:53:31;;;;;;;16.55;4.15;;;;;;;8.15;91.27;101071.59;5046549;28;20032;-84
2023/01/11 18:55:56;;;;;;;16.08;4.07;;;;;;;8.23;90.55;101070.28;5051413;28;20083;-84
2023/01/11 18:58:24;;;;;;;19.60;4.75;;;;;;;8.29;89.60;101064.66;5047811;28;20044;-85
2023/01/11 19:00:50;;;;;;;19.00;3.65;;;;;;;8.30;89.92;101067.19;5048689;28;20035;-84
2023/01/11 19:03:40;;;;;;;18.42;4.07;;;;;;;8.34;90.22;101058.25;5034150;28;20552;-85
2023/01/11 19:06:38;;;;;;;15.35;3.75;;;;;;;8.35;91.10;101059.94;5054347;28;20503;-84
2023/01/11 19:09:43;;;;;;;19.30;4.15;;;;;;;8.35;91.17;101051.22;4983670;28;20029;-83
2023/01/11 19:13:01;;;;;;;13.45;3.75;;;;;;;8.35;91.26;101046.81;5018720;28;20044;-86
2023/01/11 19:15:26;;;;;;;18.55;3.97;;;;;;;8.30;90.94;101040.16;4991225;28;20046;-85
2023/01/11 19:17:54;;;;;;;15.82;3.60;;;;;;;8.31;90.77;101045.28;4979913;28;20043;-85
2023/01/11 19:20:38;;;;;;;;;;;;;;;;;;;;;
2023/01/11 19:23:10;;;;;;;15.10;3.58;;;;;;;8.30;90.96;101027.03;4978355;28;20514;-85
2023/01/11 19:25:42;;;;;;;20.05;4.35;;;;;;;8.29;91.08;101026.19;4981872;28;20043;-85
2023/01/11 19:28:08;;;;;;;19.55;4.63;;;;;;;8.29;90.51;101015.72;4985581;28;20499;-85
2023/01/11 19:30:39;;;;;;;18.92;3.97;;;;;;;8.29;90.55;101018.31;4986105;28;20093;-85
2023/01/11 19:33:43;;;;;;;18.57;3.83;;;;;;;8.32;91.23;101014.69;4983266;28;20039;-85
2023/01/11 19:39:23;;;;;;;18.35;4.22;;;;;;;8.34;90.94;101018.06;5017548;28;20070;-85
2023/01/11 19:41:52;;;;;;;16.23;4.38;;;;;;;8.35;89.90;101012.75;5034479;28;20501;-85
2023/01/11 19:44:50;;;;;;;19.77;4.93;;;;;;;8.41;90.26;101019.41;5041018;28;20090;-85
2023/01/11 19:47:42;;;;;;;18.05;3.97;;;;;;;8.43;91.72;101021.00;5000684;28;20521;-85
2023/01/11 19:50:17;;;;;;;18.00;4.28;;;;;;;8.39;92.17;101003.75;5001502;28;20034;-84
2023/01/11 19:52:43;;;;;;;21.10;4.68;;;;;;;8.38;92.34;101001.22;4992034;28;20076;-83
2023/01/11 19:55:09;;;;;;;20.13;4.80;;;;;;;8.37;93.21;100987.25;4984954;28;20038;-84
2023/01/11 19:57:40;;;;;;;17.63;3.67;;;;;;;8.34;94.39;101000.56;5028544;28;20047;-85
2023/01/11 20:00:07;;;;;;;18.35;4.22;;;;;;;8.29;94.74;101004.38;5041475;28;20048;-84
2023/01/11 20:02:45;;;;;;;19.63;4.13;;;;;;;8.27;95.19;101007.09;5050312;28;20029;-85
2023/01/11 20:05:12;;;;;;;21.58;4.43;;;;;;;8.22;96.60;100985.56;5049786;28;20044;-85